sensor_id;sensor_type;location;lat;lon;timestamp;P1;durP1;ratioP1;P2;durP2;ratioP2
17214;SDS011;8723;51.502;6.918;2022-12-31T00:01:09;0.88;;;0.70;;
17214;SDS011;8723;51.502;6.918;2022-12-31T00:03:36;0.60;;;0.60;;
17214;SDS011;8723;51.502;6.918;2022-12-31T00:06:12;1.00;;;0.60;;
17214;SDS011;8723;51.502;6.918;2022-12-31T00:08:39;0.93;;;0.70;;
17214;SDS011;8723;51.502;6.918;2022-12-31T00:11:06;0.70;;;0.70;;
17214;SDS011;8723;51.502;6.918;2022-12-31T00:13:33;0.55;;;0.55;;
17214;SDS011;8723;51.502;6.918;2022-12-31T00:16:05;0.70;;;0.70;;
17214;SDS011;8723;51.502;6.918;2022-12-31T00:18:32;0.90;;;0.70;;
17214;SDS011;8723;51.502;6.918;2022-12-31T00:21:02;2.10;;;0.90;;
17214;SDS011;8723;51.502;6.918;2022-12-31T00:23:31;1.02;;;0.70;;
17214;SDS011;8723;51.502;6.918;2022-12-31T00:26:01;0.63;;;0.63;;
17214;SDS011;8723;51.502;6.918;2022-12-31T00:28:28;0.52;;;0.50;;
17214;SDS011;8723;51.502;6.918;2022-12-31T00:30:55;1.15;;;0.90;;
17214;SDS011;8723;51.502;6.918;2022-12-31T00:33:22;1.02;;;0.60;;
17214;SDS011;8723;51.502;6.918;2022-12-31T00:35:49;0.70;;;0.70;;
17214;SDS011;8723;51.502;6.918;2022-12-31T00:38:16;0.90;;;0.68;;
17214;SDS011;8723;51.502;6.918;2022-12-31T00:40:45;0.80;;;0.80;;
17214;SDS011;8723;51.502;6.918;2022-12-31T00:43:12;0.60;;;0.60;;
17214;SDS011;8723;51.502;6.918;2022-12-31T00:45:39;2.72;;;1.35;;
17214;SDS011;8723;51.502;6.918;2022-12-31T00:48:06;2.17;;;1.90;;
17214;SDS011;8723;51.502;6.918;2022-12-31T00:50:33;2.60;;;2.10;;
17214;SDS011;8723;51.502;6.918;2022-12-31T00:53:00;2.83;;;2.50;;
17214;SDS011;8723;51.502;6.918;2022-12-31T00:55:28;2.57;;;2.10;;
17214;SDS011;8723;51.502;6.918;2022-12-31T00:57:57;2.65;;;1.65;;
17214;SDS011;8723;51.502;6.918;2022-12-31T01:00:24;1.40;;;1.20;;
17214;SDS011;8723;51.502;6.918;2022-12-31T01:02:51;1.67;;;1.02;;
17214;SDS011;8723;51.502;6.918;2022-12-31T01:05:18;0.50;;;0.50;;
17214;SDS011;8723;51.502;6.918;2022-12-31T01:07:45;1.00;;;0.60;;
17214;SDS011;8723;51.502;6.918;2022-12-31T01:10:12;0.68;;;0.68;;
17214;SDS011;8723;51.502;6.918;2022-12-31T01:13:01;0.60;;;0.60;;
17214;SDS011;8723;51.502;6.918;2022-12-31T01:15:31;0.75;;;0.45;;
17214;SDS011;8723;51.502;6.918;2022-12-31T01:17:58;0.60;;;0.60;;
17214;SDS011;8723;51.502;6.918;2022-12-31T01:20:25;0.60;;;0.60;;
17214;SDS011;8723;51.502;6.918;2022-12-31T01:22:52;0.60;;;0.60;;
17214;SDS011;8723;51.502;6.918;2022-12-31T01:25:19;1.33;;;0.57;;
17214;SDS011;8723;51.502;6.918;2022-12-31T01:27:46;1.13;;;0.70;;
17214;SDS011;8723;51.502;6.918;2022-12-31T01:30:15;0.67;;;0.67;;
17214;SDS011;8723;51.502;6.918;2022-12-31T01:32:42;1.00;;;0.90;;
17214;SDS011;8723;51.502;6.918;2022-12-31T01:35:09;0.93;;;0.90;;
17214;SDS011;8723;51.502;6.918;2022-12-31T01:37:36;0.80;;;0.77;;
17214;SDS011;8723;51.502;6.918;2022-12-31T01:40:04;1.70;;;1.00;;
17214;SDS011;8723;51.502;6.918;2022-12-31T01:42:31;0.70;;;0.60;;
17214;SDS011;8723;51.502;6.918;2022-12-31T01:44:58;1.57;;;0.90;;
17214;SDS011;8723;51.502;6.918;2022-12-31T01:47:32;1.40;;;0.80;;
17214;SDS011;8723;51.502;6.918;2022-12-31T01:50:02;1.52;;;0.70;;
17214;SDS011;8723;51.502;6.918;2022-12-31T01:52:31;0.77;;;0.77;;
17214;SDS011;8723;51.502;6.918;2022-12-31T01:54:59;1.10;;;0.70;;
17214;SDS011;8723;51.502;6.918;2022-12-31T01:57:28;0.90;;;0.90;;
17214;SDS011;8723;51.502;6.918;2022-12-31T01:59:56;1.33;;;0.65;;
17214;SDS011;8723;51.502;6.918;2022-12-31T02:02:24;0.63;;;0.63;;
17214;SDS011;8723;51.502;6.918;2022-12-31T02:04:53;0.98;;;0.80;;
17214;SDS011;8723;51.502;6.918;2022-12-31T02:07:21;0.68;;;0.60;;
17214;SDS011;8723;51.502;6.918;2022-12-31T02:09:48;1.67;;;0.88;;
17214;SDS011;8723;51.502;6.918;2022-12-31T02:12:16;0.77;;;0.70;;
17214;SDS011;8723;51.502;6.918;2022-12-31T02:14:43;0.65;;;0.65;;
17214;SDS011;8723;51.502;6.918;2022-12-31T02:17:14;0.57;;;0.57;;
17214;SDS011;8723;51.502;6.918;2022-12-31T02:19:50;1.83;;;0.65;;
17214;SDS011;8723;51.502;6.918;2022-12-31T02:22:26;1.85;;;0.65;;
17214;SDS011;8723;51.502;6.918;2022-12-31T02:25:02;0.68;;;0.60;;
17214;SDS011;8723;51.502;6.918;2022-12-31T02:27:36;1.23;;;0.60;;
17214;SDS011;8723;51.502;6.918;2022-12-31T02:30:11;0.60;;;0.60;;
17214;SDS011;8723;51.502;6.918;2022-12-31T02:32:44;0.70;;;0.40;;
17214;SDS011;8723;51.502;6.918;2022-12-31T02:35:14;0.47;;;0.45;;
17214;SDS011;8723;51.502;6.918;2022-12-31T02:37:42;1.30;;;0.30;;
17214;SDS011;8723;51.502;6.918;2022-12-31T02:40:12;0.53;;;0.30;;
17214;SDS011;8723;51.502;6.918;2022-12-31T02:42:41;0.30;;;0.30;;
17214;SDS011;8723;51.502;6.918;2022-12-31T02:45:08;0.80;;;0.25;;
17214;SDS011;8723;51.502;6.918;2022-12-31T02:47:40;0.77;;;0.30;;
17214;SDS011;8723;51.502;6.918;2022-12-31T02:50:15;0.20;;;0.20;;
17214;SDS011;8723;51.502;6.918;2022-12-31T02:52:47;0.20;;;0.20;;
17214;SDS011;8723;51.502;6.918;2022-12-31T02:55:18;0.90;;;0.20;;
17214;SDS011;8723;51.502;6.918;2022-12-31T02:57:50;0.50;;;0.20;;
17214;SDS011;8723;51.502;6.918;2022-12-31T03:00:18;0.50;;;0.20;;
17214;SDS011;8723;51.502;6.918;2022-12-31T03:03:04;0.63;;;0.20;;
17214;SDS011;8723;51.502;6.918;2022-12-31T03:05:33;0.25;;;0.25;;
17214;SDS011;8723;51.502;6.918;2022-12-31T03:08:02;0.20;;;0.20;;
17214;SDS011;8723;51.502;6.918;2022-12-31T03:10:29;0.30;;;0.30;;
17214;SDS011;8723;51.502;6.918;2022-12-31T03:12:56;0.75;;;0.50;;
17214;SDS011;8723;51.502;6.918;2022-12-31T03:15:23;0.55;;;0.35;;
17214;SDS011;8723;51.502;6.918;2022-12-31T03:17:52;0.90;;;0.70;;
17214;SDS011;8723;51.502;6.918;2022-12-31T03:20:21;1.63;;;1.10;;
17214;SDS011;8723;51.502;6.918;2022-12-31T03:23:11;3.47;;;1.40;;
17214;SDS011;8723;51.502;6.918;2022-12-31T03:25:38;1.45;;;1.35;;
17214;SDS011;8723;51.502;6.918;2022-12-31T03:28:06;2.00;;;1.33;;
17214;SDS011;8723;51.502;6.918;2022-12-31T03:30:33;1.42;;;1.30;;
17214;SDS011;8723;51.502;6.918;2022-12-31T03:33:01;2.13;;;1.23;;
17214;SDS011;8723;51.502;6.918;2022-12-31T03:35:31;2.65;;;1.40;;
17214;SDS011;8723;51.502;6.918;2022-12-31T03:37:58;2.28;;;1.30;;
17214;SDS011;8723;51.502;6.918;2022-12-31T03:40:26;1.65;;;1.10;;
17214;SDS011;8723;51.502;6.918;2022-12-31T03:42:54;2.28;;;1.30;;
17214;SDS011;8723;51.502;6.918;2022-12-31T03:45:21;2.67;;;0.93;;
17214;SDS011;8723;51.502;6.918;2022-12-31T03:47:48;3.10;;;1.00;;
17214;SDS011;8723;51.502;6.918;2022-12-31T03:50:16;1.20;;;0.80;;
17214;SDS011;8723;51.502;6.918;2022-12-31T03:52:45;1.15;;;0.70;;
17214;SDS011;8723;51.502;6.918;2022-12-31T03:55:12;1.08;;;0.70;;
17214;SDS011;8723;51.502;6.918;2022-12-31T03:57:39;2.10;;;0.60;;
17214;SDS011;8723;51.502;6.918;2022-12-31T04:00:08;1.00;;;0.90;;
17214;SDS011;8723;51.502;6.918;2022-12-31T04:02:35;1.08;;;0.90;;
17214;SDS011;8723;51.502;6.918;2022-12-31T04:05:03;2.73;;;0.80;;
17214;SDS011;8723;51.502;6.918;2022-12-31T04:07:30;0.90;;;0.70;;
17214;SDS011;8723;51.502;6.918;2022-12-31T04:09:59;1.17;;;1.00;;
17214;SDS011;8723;51.502;6.918;2022-12-31T04:12:26;0.82;;;0.80;;
17214;SDS011;8723;51.502;6.918;2022-12-31T04:14:53;1.13;;;0.70;;
17214;SDS011;8723;51.502;6.918;2022-12-31T04:17:20;1.23;;;0.60;;
17214;SDS011;8723;51.502;6.918;2022-12-31T04:19:47;2.38;;;1.10;;
17214;SDS011;8723;51.502;6.918;2022-12-31T04:22:14;1.70;;;1.23;;
17214;SDS011;8723;51.502;6.918;2022-12-31T04:24:42;2.13;;;1.23;;
17214;SDS011;8723;51.502;6.918;2022-12-31T04:27:10;2.08;;;1.58;;
17214;SDS011;8723;51.502;6.918;2022-12-31T04:29:38;2.47;;;1.70;;
17214;SDS011;8723;51.502;6.918;2022-12-31T04:32:06;2.75;;;1.55;;
17214;SDS011;8723;51.502;6.918;2022-12-31T04:34:33;1.38;;;0.90;;
17214;SDS011;8723;51.502;6.918;2022-12-31T04:37:00;0.77;;;0.60;;
17214;SDS011;8723;51.502;6.918;2022-12-31T04:39:28;1.02;;;0.60;;
17214;SDS011;8723;51.502;6.918;2022-12-31T04:41:55;0.55;;;0.40;;
17214;SDS011;8723;51.502;6.918;2022-12-31T04:44:23;0.82;;;0.60;;
17214;SDS011;8723;51.502;6.918;2022-12-31T04:46:50;1.95;;;0.60;;
17214;SDS011;8723;51.502;6.918;2022-12-31T04:49:18;0.70;;;0.65;;
17214;SDS011;8723;51.502;6.918;2022-12-31T04:51:45;1.27;;;0.50;;
17214;SDS011;8723;51.502;6.918;2022-12-31T04:54:12;1.03;;;0.53;;
17214;SDS011;8723;51.502;6.918;2022-12-31T04:56:39;0.98;;;0.50;;
17214;SDS011;8723;51.502;6.918;2022-12-31T04:59:06;0.93;;;0.65;;
17214;SDS011;8723;51.502;6.918;2022-12-31T05:01:35;2.15;;;0.80;;
17214;SDS011;8723;51.502;6.918;2022-12-31T05:04:03;0.40;;;0.38;;
17214;SDS011;8723;51.502;6.918;2022-12-31T05:06:30;1.33;;;0.55;;
17214;SDS011;8723;51.502;6.918;2022-12-31T05:08:57;1.55;;;0.40;;
17214;SDS011;8723;51.502;6.918;2022-12-31T05:11:24;0.70;;;0.40;;
17214;SDS011;8723;51.502;6.918;2022-12-31T05:13:51;1.33;;;0.50;;
17214;SDS011;8723;51.502;6.918;2022-12-31T05:16:19;0.60;;;0.30;;
17214;SDS011;8723;51.502;6.918;2022-12-31T05:18:47;1.13;;;0.47;;
17214;SDS011;8723;51.502;6.918;2022-12-31T05:21:17;0.95;;;0.40;;
17214;SDS011;8723;51.502;6.918;2022-12-31T05:23:45;0.80;;;0.40;;
17214;SDS011;8723;51.502;6.918;2022-12-31T05:26:12;0.70;;;0.45;;
17214;SDS011;8723;51.502;6.918;2022-12-31T05:28:39;2.22;;;0.80;;
17214;SDS011;8723;51.502;6.918;2022-12-31T05:31:06;1.13;;;0.50;;
17214;SDS011;8723;51.502;6.918;2022-12-31T05:33:33;2.30;;;0.63;;
17214;SDS011;8723;51.502;6.918;2022-12-31T05:36:02;0.73;;;0.50;;
17214;SDS011;8723;51.502;6.918;2022-12-31T05:38:29;1.23;;;0.47;;
17214;SDS011;8723;51.502;6.918;2022-12-31T05:41:00;1.90;;;0.50;;
17214;SDS011;8723;51.502;6.918;2022-12-31T05:43:27;1.80;;;0.73;;
17214;SDS011;8723;51.502;6.918;2022-12-31T05:45:54;1.55;;;0.63;;
17214;SDS011;8723;51.502;6.918;2022-12-31T05:48:21;0.83;;;0.60;;
17214;SDS011;8723;51.502;6.918;2022-12-31T05:50:48;2.95;;;1.30;;
17214;SDS011;8723;51.502;6.918;2022-12-31T05:53:17;2.20;;;0.70;;
17214;SDS011;8723;51.502;6.918;2022-12-31T05:55:45;2.20;;;0.90;;
17214;SDS011;8723;51.502;6.918;2022-12-31T05:58:12;1.95;;;0.90;;
17214;SDS011;8723;51.502;6.918;2022-12-31T06:00:39;1.37;;;0.77;;
17214;SDS011;8723;51.502;6.918;2022-12-31T06:03:07;2.58;;;0.85;;
17214;SDS011;8723;51.502;6.918;2022-12-31T06:05:34;1.45;;;0.80;;
17214;SDS011;8723;51.502;6.918;2022-12-31T06:08:01;1.42;;;0.90;;
17214;SDS011;8723;51.502;6.918;2022-12-31T06:10:29;1.83;;;0.97;;
17214;SDS011;8723;51.502;6.918;2022-12-31T06:12:56;1.50;;;0.90;;
17214;SDS011;8723;51.502;6.918;2022-12-31T06:15:24;2.10;;;1.20;;
17214;SDS011;8723;51.502;6.918;2022-12-31T06:17:51;2.40;;;1.20;;
17214;SDS011;8723;51.502;6.918;2022-12-31T06:20:18;1.23;;;0.80;;
17214;SDS011;8723;51.502;6.918;2022-12-31T06:22:45;2.00;;;1.00;;
17214;SDS011;8723;51.502;6.918;2022-12-31T06:25:12;2.97;;;1.10;;
17214;SDS011;8723;51.502;6.918;2022-12-31T06:27:41;2.20;;;0.80;;
17214;SDS011;8723;51.502;6.918;2022-12-31T06:30:08;0.70;;;0.70;;
17214;SDS011;8723;51.502;6.918;2022-12-31T06:32:36;2.70;;;0.93;;
17214;SDS011;8723;51.502;6.918;2022-12-31T06:35:03;2.35;;;1.08;;
17214;SDS011;8723;51.502;6.918;2022-12-31T06:37:31;2.05;;;1.10;;
17214;SDS011;8723;51.502;6.918;2022-12-31T06:39:58;1.40;;;1.00;;
17214;SDS011;8723;51.502;6.918;2022-12-31T06:42:26;2.08;;;0.98;;
17214;SDS011;8723;51.502;6.918;2022-12-31T06:44:56;1.65;;;0.90;;
17214;SDS011;8723;51.502;6.918;2022-12-31T06:47:25;2.28;;;0.95;;
17214;SDS011;8723;51.502;6.918;2022-12-31T06:49:52;1.35;;;0.90;;
17214;SDS011;8723;51.502;6.918;2022-12-31T06:52:20;1.50;;;1.20;;
17214;SDS011;8723;51.502;6.918;2022-12-31T06:54:47;2.72;;;1.00;;
17214;SDS011;8723;51.502;6.918;2022-12-31T06:57:15;1.98;;;1.05;;
17214;SDS011;8723;51.502;6.918;2022-12-31T06:59:42;1.70;;;0.90;;
17214;SDS011;8723;51.502;6.918;2022-12-31T07:02:16;3.17;;;1.13;;
17214;SDS011;8723;51.502;6.918;2022-12-31T07:07:32;1.48;;;0.82;;
17214;SDS011;8723;51.502;6.918;2022-12-31T07:10:02;2.03;;;0.85;;
17214;SDS011;8723;51.502;6.918;2022-12-31T07:12:36;1.55;;;0.73;;
17214;SDS011;8723;51.502;6.918;2022-12-31T07:15:08;1.58;;;0.70;;
17214;SDS011;8723;51.502;6.918;2022-12-31T07:17:39;2.50;;;0.80;;
17214;SDS011;8723;51.502;6.918;2022-12-31T07:20:09;1.33;;;0.50;;
17214;SDS011;8723;51.502;6.918;2022-12-31T07:22:36;1.00;;;0.60;;
17214;SDS011;8723;51.502;6.918;2022-12-31T07:25:04;1.65;;;0.82;;
17214;SDS011;8723;51.502;6.918;2022-12-31T07:27:35;2.10;;;0.60;;
17214;SDS011;8723;51.502;6.918;2022-12-31T07:30:08;1.23;;;0.73;;
17214;SDS011;8723;51.502;6.918;2022-12-31T07:32:55;2.25;;;0.80;;
17214;SDS011;8723;51.502;6.918;2022-12-31T07:35:27;1.33;;;0.60;;
17214;SDS011;8723;51.502;6.918;2022-12-31T07:37:59;1.70;;;0.70;;
17214;SDS011;8723;51.502;6.918;2022-12-31T07:40:31;1.30;;;0.70;;
17214;SDS011;8723;51.502;6.918;2022-12-31T07:43:03;1.25;;;0.60;;
17214;SDS011;8723;51.502;6.918;2022-12-31T07:45:34;2.25;;;0.80;;
17214;SDS011;8723;51.502;6.918;2022-12-31T07:48:12;2.70;;;0.80;;
17214;SDS011;8723;51.502;6.918;2022-12-31T07:50:40;1.95;;;0.73;;
17214;SDS011;8723;51.502;6.918;2022-12-31T07:53:07;1.88;;;0.70;;
17214;SDS011;8723;51.502;6.918;2022-12-31T07:55:34;2.92;;;0.80;;
17214;SDS011;8723;51.502;6.918;2022-12-31T07:58:02;1.33;;;0.77;;
17214;SDS011;8723;51.502;6.918;2022-12-31T08:00:34;2.65;;;0.80;;
17214;SDS011;8723;51.502;6.918;2022-12-31T08:03:03;3.22;;;0.90;;
17214;SDS011;8723;51.502;6.918;2022-12-31T08:05:34;2.70;;;0.85;;
17214;SDS011;8723;51.502;6.918;2022-12-31T08:08:07;1.75;;;0.70;;
17214;SDS011;8723;51.502;6.918;2022-12-31T08:10:39;1.88;;;0.70;;
17214;SDS011;8723;51.502;6.918;2022-12-31T08:13:09;1.63;;;0.70;;
17214;SDS011;8723;51.502;6.918;2022-12-31T08:15:37;1.90;;;0.80;;
17214;SDS011;8723;51.502;6.918;2022-12-31T08:18:05;1.55;;;0.70;;
17214;SDS011;8723;51.502;6.918;2022-12-31T08:20:44;1.35;;;0.73;;
17214;SDS011;8723;51.502;6.918;2022-12-31T08:23:18;1.90;;;0.93;;
17214;SDS011;8723;51.502;6.918;2022-12-31T08:25:55;1.67;;;0.88;;
17214;SDS011;8723;51.502;6.918;2022-12-31T08:28:26;1.77;;;0.70;;
17214;SDS011;8723;51.502;6.918;2022-12-31T08:30:57;1.88;;;0.80;;
17214;SDS011;8723;51.502;6.918;2022-12-31T08:33:27;1.43;;;0.80;;
17214;SDS011;8723;51.502;6.918;2022-12-31T08:36:01;2.20;;;1.00;;
17214;SDS011;8723;51.502;6.918;2022-12-31T08:38:33;1.48;;;0.80;;
17214;SDS011;8723;51.502;6.918;2022-12-31T08:41:05;1.20;;;0.63;;
17214;SDS011;8723;51.502;6.918;2022-12-31T08:43:38;2.75;;;0.90;;
17214;SDS011;8723;51.502;6.918;2022-12-31T08:46:11;2.65;;;1.20;;
17214;SDS011;8723;51.502;6.918;2022-12-31T08:48:42;1.27;;;0.70;;
17214;SDS011;8723;51.502;6.918;2022-12-31T08:51:12;1.52;;;0.80;;
17214;SDS011;8723;51.502;6.918;2022-12-31T08:53:40;1.83;;;0.80;;
17214;SDS011;8723;51.502;6.918;2022-12-31T08:56:09;2.50;;;0.90;;
17214;SDS011;8723;51.502;6.918;2022-12-31T08:58:41;1.40;;;0.90;;
17214;SDS011;8723;51.502;6.918;2022-12-31T09:01:11;1.90;;;0.75;;
17214;SDS011;8723;51.502;6.918;2022-12-31T09:06:37;1.20;;;0.77;;
17214;SDS011;8723;51.502;6.918;2022-12-31T09:09:08;1.90;;;0.88;;
17214;SDS011;8723;51.502;6.918;2022-12-31T09:11:43;3.65;;;1.00;;
17214;SDS011;8723;51.502;6.918;2022-12-31T09:16:59;2.53;;;0.85;;
17214;SDS011;8723;51.502;6.918;2022-12-31T09:19:28;1.17;;;0.70;;
17214;SDS011;8723;51.502;6.918;2022-12-31T09:21:56;2.70;;;0.90;;
17214;SDS011;8723;51.502;6.918;2022-12-31T09:24:24;1.80;;;0.73;;
17214;SDS011;8723;51.502;6.918;2022-12-31T09:26:54;1.55;;;0.90;;
17214;SDS011;8723;51.502;6.918;2022-12-31T09:29:29;2.10;;;0.80;;
17214;SDS011;8723;51.502;6.918;2022-12-31T09:32:00;1.77;;;0.82;;
17214;SDS011;8723;51.502;6.918;2022-12-31T09:34:32;1.80;;;0.80;;
17214;SDS011;8723;51.502;6.918;2022-12-31T09:37:04;2.15;;;0.90;;
17214;SDS011;8723;51.502;6.918;2022-12-31T09:39:36;1.50;;;0.98;;
17214;SDS011;8723;51.502;6.918;2022-12-31T09:42:17;1.60;;;1.00;;
17214;SDS011;8723;51.502;6.918;2022-12-31T09:45:03;2.67;;;1.10;;
17214;SDS011;8723;51.502;6.918;2022-12-31T09:53:15;2.92;;;1.23;;
17214;SDS011;8723;51.502;6.918;2022-12-31T09:55:51;3.22;;;1.30;;
17214;SDS011;8723;51.502;6.918;2022-12-31T09:58:22;2.65;;;1.27;;
17214;SDS011;8723;51.502;6.918;2022-12-31T10:00:55;1.73;;;1.17;;
17214;SDS011;8723;51.502;6.918;2022-12-31T10:03:29;2.63;;;1.25;;
17214;SDS011;8723;51.502;6.918;2022-12-31T10:06:02;1.90;;;1.10;;
17214;SDS011;8723;51.502;6.918;2022-12-31T10:08:37;3.40;;;2.00;;
17214;SDS011;8723;51.502;6.918;2022-12-31T10:11:09;3.85;;;2.40;;
17214;SDS011;8723;51.502;6.918;2022-12-31T10:13:42;3.65;;;2.05;;
17214;SDS011;8723;51.502;6.918;2022-12-31T10:21:45;3.90;;;2.03;;
17214;SDS011;8723;51.502;6.918;2022-12-31T10:24:18;4.45;;;1.70;;
17214;SDS011;8723;51.502;6.918;2022-12-31T10:26:52;2.45;;;1.40;;
17214;SDS011;8723;51.502;6.918;2022-12-31T10:29:23;2.50;;;1.60;;
17214;SDS011;8723;51.502;6.918;2022-12-31T10:31:54;2.60;;;1.30;;
17214;SDS011;8723;51.502;6.918;2022-12-31T10:34:25;2.07;;;1.20;;
17214;SDS011;8723;51.502;6.918;2022-12-31T10:36:53;2.60;;;1.20;;
17214;SDS011;8723;51.502;6.918;2022-12-31T10:39:25;2.65;;;1.10;;
17214;SDS011;8723;51.502;6.918;2022-12-31T10:42:13;3.25;;;1.38;;
17214;SDS011;8723;51.502;6.918;2022-12-31T10:45:10;3.10;;;1.30;;
17214;SDS011;8723;51.502;6.918;2022-12-31T10:50:37;2.28;;;1.35;;
17214;SDS011;8723;51.502;6.918;2022-12-31T10:53:12;2.40;;;1.27;;
17214;SDS011;8723;51.502;6.918;2022-12-31T10:55:55;3.83;;;1.45;;
17214;SDS011;8723;51.502;6.918;2022-12-31T10:58:37;2.40;;;1.48;;
17214;SDS011;8723;51.502;6.918;2022-12-31T11:01:09;3.37;;;1.63;;
17214;SDS011;8723;51.502;6.918;2022-12-31T11:11:51;3.10;;;1.30;;
17214;SDS011;8723;51.502;6.918;2022-12-31T11:17:04;2.50;;;1.20;;
17214;SDS011;8723;51.502;6.918;2022-12-31T11:19:37;3.93;;;1.40;;
17214;SDS011;8723;51.502;6.918;2022-12-31T11:22:12;3.33;;;1.45;;
17214;SDS011;8723;51.502;6.918;2022-12-31T11:24:46;3.55;;;1.30;;
17214;SDS011;8723;51.502;6.918;2022-12-31T11:27:24;1.92;;;1.27;;
17214;SDS011;8723;51.502;6.918;2022-12-31T11:30:02;2.97;;;1.20;;
17214;SDS011;8723;51.502;6.918;2022-12-31T11:32:33;3.75;;;1.52;;
17214;SDS011;8723;51.502;6.918;2022-12-31T11:35:12;2.42;;;1.15;;
17214;SDS011;8723;51.502;6.918;2022-12-31T11:37:43;1.67;;;1.00;;
17214;SDS011;8723;51.502;6.918;2022-12-31T11:40:14;2.38;;;1.33;;
17214;SDS011;8723;51.502;6.918;2022-12-31T11:42:48;4.20;;;1.33;;
17214;SDS011;8723;51.502;6.918;2022-12-31T11:45:21;3.55;;;1.30;;
17214;SDS011;8723;51.502;6.918;2022-12-31T11:47:54;2.83;;;1.10;;
17214;SDS011;8723;51.502;6.918;2022-12-31T11:50:26;3.10;;;1.25;;
17214;SDS011;8723;51.502;6.918;2022-12-31T11:52:56;2.67;;;1.35;;
17214;SDS011;8723;51.502;6.918;2022-12-31T11:55:39;2.80;;;1.23;;
17214;SDS011;8723;51.502;6.918;2022-12-31T11:58:11;3.08;;;1.30;;
17214;SDS011;8723;51.502;6.918;2022-12-31T12:00:39;2.08;;;1.13;;
17214;SDS011;8723;51.502;6.918;2022-12-31T12:03:08;4.00;;;1.38;;
17214;SDS011;8723;51.502;6.918;2022-12-31T12:05:37;2.70;;;1.48;;
17214;SDS011;8723;51.502;6.918;2022-12-31T12:08:05;3.35;;;1.20;;
17214;SDS011;8723;51.502;6.918;2022-12-31T12:10:35;3.63;;;1.60;;
17214;SDS011;8723;51.502;6.918;2022-12-31T12:13:11;4.13;;;1.70;;
17214;SDS011;8723;51.502;6.918;2022-12-31T12:15:38;3.15;;;1.52;;
17214;SDS011;8723;51.502;6.918;2022-12-31T12:18:08;3.60;;;2.05;;
17214;SDS011;8723;51.502;6.918;2022-12-31T12:20:36;4.82;;;2.10;;
17214;SDS011;8723;51.502;6.918;2022-12-31T12:23:11;2.65;;;1.65;;
17214;SDS011;8723;51.502;6.918;2022-12-31T12:25:40;3.40;;;1.60;;
17214;SDS011;8723;51.502;6.918;2022-12-31T12:28:18;3.73;;;1.70;;
17214;SDS011;8723;51.502;6.918;2022-12-31T12:30:46;5.30;;;1.50;;
17214;SDS011;8723;51.502;6.918;2022-12-31T12:33:19;5.32;;;1.77;;
17214;SDS011;8723;51.502;6.918;2022-12-31T12:35:46;4.80;;;2.00;;
17214;SDS011;8723;51.502;6.918;2022-12-31T12:38:14;4.97;;;2.03;;
17214;SDS011;8723;51.502;6.918;2022-12-31T12:40:50;2.83;;;1.73;;
17214;SDS011;8723;51.502;6.918;2022-12-31T12:43:21;3.80;;;1.60;;
17214;SDS011;8723;51.502;6.918;2022-12-31T12:45:49;3.08;;;1.50;;
17214;SDS011;8723;51.502;6.918;2022-12-31T12:48:16;2.65;;;1.35;;
17214;SDS011;8723;51.502;6.918;2022-12-31T12:50:44;3.58;;;1.67;;
17214;SDS011;8723;51.502;6.918;2022-12-31T12:53:19;5.00;;;1.73;;
17214;SDS011;8723;51.502;6.918;2022-12-31T12:55:53;3.08;;;1.50;;
17214;SDS011;8723;51.502;6.918;2022-12-31T12:58:31;3.92;;;1.90;;
17214;SDS011;8723;51.502;6.918;2022-12-31T13:01:01;3.75;;;1.65;;
17214;SDS011;8723;51.502;6.918;2022-12-31T13:06:16;3.08;;;2.10;;
17214;SDS011;8723;51.502;6.918;2022-12-31T13:08:52;3.85;;;1.88;;
17214;SDS011;8723;51.502;6.918;2022-12-31T13:11:25;4.65;;;1.70;;
17214;SDS011;8723;51.502;6.918;2022-12-31T13:13:59;3.97;;;2.00;;
17214;SDS011;8723;51.502;6.918;2022-12-31T13:16:30;3.85;;;2.03;;
17214;SDS011;8723;51.502;6.918;2022-12-31T13:19:00;4.18;;;2.40;;
17214;SDS011;8723;51.502;6.918;2022-12-31T13:21:40;5.47;;;2.55;;
17214;SDS011;8723;51.502;6.918;2022-12-31T13:24:14;5.63;;;2.80;;
17214;SDS011;8723;51.502;6.918;2022-12-31T13:26:43;4.35;;;2.47;;
17214;SDS011;8723;51.502;6.918;2022-12-31T13:29:14;5.00;;;2.50;;
17214;SDS011;8723;51.502;6.918;2022-12-31T13:31:43;3.33;;;2.30;;
17214;SDS011;8723;51.502;6.918;2022-12-31T13:34:12;3.13;;;2.13;;
17214;SDS011;8723;51.502;6.918;2022-12-31T13:36:42;4.53;;;2.20;;
17214;SDS011;8723;51.502;6.918;2022-12-31T13:39:12;4.75;;;2.28;;
17214;SDS011;8723;51.502;6.918;2022-12-31T13:41:41;4.20;;;2.50;;
17214;SDS011;8723;51.502;6.918;2022-12-31T13:44:12;4.93;;;2.40;;
17214;SDS011;8723;51.502;6.918;2022-12-31T13:46:42;3.53;;;2.08;;
17214;SDS011;8723;51.502;6.918;2022-12-31T13:49:13;4.25;;;2.13;;
17214;SDS011;8723;51.502;6.918;2022-12-31T13:51:42;4.20;;;2.40;;
17214;SDS011;8723;51.502;6.918;2022-12-31T13:54:12;3.90;;;2.40;;
17214;SDS011;8723;51.502;6.918;2022-12-31T13:56:43;5.78;;;2.25;;
17214;SDS011;8723;51.502;6.918;2022-12-31T13:59:12;5.30;;;1.90;;
17214;SDS011;8723;51.502;6.918;2022-12-31T14:01:43;4.70;;;1.90;;
17214;SDS011;8723;51.502;6.918;2022-12-31T14:04:14;4.53;;;1.90;;
17214;SDS011;8723;51.502;6.918;2022-12-31T14:06:43;4.82;;;2.03;;
17214;SDS011;8723;51.502;6.918;2022-12-31T14:09:13;3.85;;;1.85;;
17214;SDS011;8723;51.502;6.918;2022-12-31T14:11:45;3.30;;;1.67;;
17214;SDS011;8723;51.502;6.918;2022-12-31T14:14:19;4.43;;;1.75;;
17214;SDS011;8723;51.502;6.918;2022-12-31T14:16:52;6.03;;;1.75;;
17214;SDS011;8723;51.502;6.918;2022-12-31T14:19:24;4.10;;;1.80;;
17214;SDS011;8723;51.502;6.918;2022-12-31T14:21:53;4.03;;;1.70;;
17214;SDS011;8723;51.502;6.918;2022-12-31T14:24:26;4.53;;;1.80;;
17214;SDS011;8723;51.502;6.918;2022-12-31T14:26:56;4.45;;;2.22;;
17214;SDS011;8723;51.502;6.918;2022-12-31T14:29:27;4.57;;;2.05;;
17214;SDS011;8723;51.502;6.918;2022-12-31T14:32:09;3.83;;;1.83;;
17214;SDS011;8723;51.502;6.918;2022-12-31T14:34:39;3.53;;;1.70;;
17214;SDS011;8723;51.502;6.918;2022-12-31T14:37:08;6.47;;;2.00;;
17214;SDS011;8723;51.502;6.918;2022-12-31T14:39:40;2.83;;;1.73;;
17214;SDS011;8723;51.502;6.918;2022-12-31T14:42:16;5.30;;;2.03;;
17214;SDS011;8723;51.502;6.918;2022-12-31T14:44:47;2.87;;;1.63;;
17214;SDS011;8723;51.502;6.918;2022-12-31T14:47:26;3.83;;;2.03;;
17214;SDS011;8723;51.502;6.918;2022-12-31T14:49:56;4.90;;;2.00;;
17214;SDS011;8723;51.502;6.918;2022-12-31T14:52:28;4.47;;;2.30;;
17214;SDS011;8723;51.502;6.918;2022-12-31T14:54:56;4.30;;;1.85;;
17214;SDS011;8723;51.502;6.918;2022-12-31T14:57:24;4.45;;;2.40;;
17214;SDS011;8723;51.502;6.918;2022-12-31T14:59:53;4.10;;;1.80;;
17214;SDS011;8723;51.502;6.918;2022-12-31T15:02:26;3.53;;;2.03;;
17214;SDS011;8723;51.502;6.918;2022-12-31T15:05:02;5.78;;;1.88;;
17214;SDS011;8723;51.502;6.918;2022-12-31T15:07:31;4.63;;;1.92;;
17214;SDS011;8723;51.502;6.918;2022-12-31T15:10:02;4.30;;;1.80;;
17214;SDS011;8723;51.502;6.918;2022-12-31T15:12:49;3.47;;;1.70;;
17214;SDS011;8723;51.502;6.918;2022-12-31T15:15:22;2.75;;;1.77;;
17214;SDS011;8723;51.502;6.918;2022-12-31T15:18:00;3.83;;;2.00;;
17214;SDS011;8723;51.502;6.918;2022-12-31T15:20:36;4.80;;;1.92;;
17214;SDS011;8723;51.502;6.918;2022-12-31T15:23:11;4.68;;;1.85;;
17214;SDS011;8723;51.502;6.918;2022-12-31T15:25:39;4.07;;;1.92;;
17214;SDS011;8723;51.502;6.918;2022-12-31T15:28:21;3.38;;;1.80;;
17214;SDS011;8723;51.502;6.918;2022-12-31T15:30:50;4.65;;;2.30;;
17214;SDS011;8723;51.502;6.918;2022-12-31T15:33:20;3.67;;;2.17;;
17214;SDS011;8723;51.502;6.918;2022-12-31T15:35:50;4.40;;;2.10;;
17214;SDS011;8723;51.502;6.918;2022-12-31T15:38:28;3.88;;;2.00;;
17214;SDS011;8723;51.502;6.918;2022-12-31T15:40:56;3.75;;;2.13;;
17214;SDS011;8723;51.502;6.918;2022-12-31T15:43:26;3.83;;;1.80;;
17214;SDS011;8723;51.502;6.918;2022-12-31T15:45:55;3.33;;;2.00;;
17214;SDS011;8723;51.502;6.918;2022-12-31T15:48:25;3.40;;;1.73;;
17214;SDS011;8723;51.502;6.918;2022-12-31T15:50:55;2.88;;;2.00;;
17214;SDS011;8723;51.502;6.918;2022-12-31T15:53:25;2.97;;;1.90;;
17214;SDS011;8723;51.502;6.918;2022-12-31T15:55:53;2.70;;;1.80;;